Time;durP1;ratioP1;P1;durP2;ratioP2;P2;SDS_P1;SDS_P2;PMS_P1;PMS_P2;Temp;Humidity;BMP_temperature;BMP_pressure;BME280_temperature;BME280_humidity;BME280_pressure;Samples;Min_cycle;Max_cycle;Signal;HPM_P1;HPM_P2
2023/03/05 00:01:39;;;;;;;13.82;3.90;;;5.00;99.90;;;;;;5101653;28;20422;-64
2023/03/05 00:04:10;;;;;;;11.77;3.22;;;5.00;1.00;;;;;;5099683;28;20401;-63
2023/03/05 00:06:36;;;;;;;11.43;3.22;;;5.10;81.90;;;;;;5102699;28;20412;-64
2023/03/05 00:09:05;;;;;;;10.90;3.53;;;5.10;99.90;;;;;;5100928;28;20410;-65
2023/03/05 00:11:32;;;;;;;11.27;3.70;;;5.10;1.00;;;;;;5101738;28;20462;-64
2023/03/05 00:14:02;;;;;;;16.08;4.13;;;4.90;99.90;;;;;;5102013;28;20451;-66
2023/03/05 00:16:29;;;;;;;13.85;4.78;;;5.00;1.00;;;;;;5099866;28;20766;-64
2023/03/05 00:18:58;;;;;;;13.15;4.72;;;4.90;1.00;;;;;;5099107;28;20417;-65
2023/03/05 00:21:26;;;;;;;17.73;5.40;;;5.00;1.00;;;;;;5101452;28;20449;-64
2023/03/05 00:23:54;;;;;;;15.30;4.78;;;4.70;1.00;;;;;;5102127;28;20473;-63
2023/03/05 00:26:25;;;;;;;13.10;4.93;;;4.60;1.00;;;;;;5096621;28;20475;-65
2023/03/05 00:28:52;;;;;;;14.63;4.65;;;4.50;21.60;;;;;;5099983;28;20455;-63
2023/03/05 00:31:21;;;;;;;14.23;5.10;;;4.50;31.90;;;;;;5100540;28;20410;-63
2023/03/05 00:33:53;;;;;;;16.48;5.22;;;4.50;34.00;;;;;;5107087;28;20478;-65
2023/03/05 00:36:20;;;;;;;18.05;5.38;;;4.40;47.50;;;;;;5099020;28;20467;-64
2023/03/05 00:38:47;;;;;;;14.07;5.03;;;4.50;51.60;;;;;;5099833;28;20463;-63
2023/03/05 00:41:14;;;;;;;16.38;5.80;;;4.60;51.50;;;;;;5102106;28;20463;-63
2023/03/05 00:43:42;;;;;;;17.30;5.78;;;4.60;53.00;;;;;;5101112;28;20412;-64
2023/03/05 00:46:09;;;;;;;17.63;6.28;;;4.50;51.10;;;;;;5099427;28;20422;-65
2023/03/05 00:48:36;;;;;;;12.85;6.45;;;4.40;64.80;;;;;;5100707;28;20408;-66
2023/03/05 00:51:03;;;;;;;21.53;6.50;;;4.50;66.60;;;;;;5099024;28;20421;-65
2023/03/05 00:53:30;;;;;;;17.08;6.43;;;4.50;69.70;;;;;;5102082;28;20446;-66
2023/03/05 00:55:56;;;;;;;12.38;6.10;;;4.50;65.60;;;;;;5100538;28;21309;-66
2023/03/05 00:58:23;;;;;;;15.23;5.80;;;4.60;63.70;;;;;;5099018;28;20410;-66
2023/03/05 01:00:51;;;;;;;10.60;5.03;;;4.30;68.80;;;;;;5100757;28;20433;-64
2023/03/05 01:03:18;;;;;;;12.68;4.47;;;4.20;80.00;;;;;;5101661;28;20458;-65
2023/03/05 01:05:45;;;;;;;11.27;3.67;;;4.30;83.00;;;;;;5095459;28;20417;-65
2023/03/05 01:08:11;;;;;;;10.15;3.60;;;4.20;79.80;;;;;;5099699;28;20827;-65
2023/03/05 01:10:38;;;;;;;10.85;3.67;;;4.20;73.10;;;;;;5101417;28;20488;-65
2023/03/05 01:13:05;;;;;;;12.25;3.55;;;4.20;84.40;;;;;;5100582;28;20408;-65
2023/03/05 01:15:31;;;;;;;8.02;2.63;;;4.20;81.40;;;;;;5101357;28;20785;-65
2023/03/05 01:18:00;;;;;;;9.77;3.60;;;4.30;76.40;;;;;;5101119;28;20419;-65
2023/03/05 01:20:26;;;;;;;10.70;2.90;;;4.30;77.30;;;;;;5100556;28;20465;-64
2023/03/05 01:22:53;;;;;;;10.30;3.47;;;4.40;73.40;;;;;;5099150;28;20463;-64
2023/03/05 01:25:20;;;;;;;10.90;3.40;;;4.40;70.60;;;;;;5104018;28;20452;-65
2023/03/05 01:27:47;;;;;;;11.70;3.60;;;4.30;70.80;;;;;;5105269;28;20400;-65
2023/03/05 01:30:15;;;;;;;11.32;3.65;;;4.30;71.10;;;;;;5099032;28;20946;-65
2023/03/05 01:32:42;;;;;;;13.02;3.63;;;4.10;78.20;;;;;;5103025;28;20413;-65
2023/03/05 01:35:15;;;;;;;11.95;3.20;;;3.90;88.00;;;;;;5105295;28;20805;-62
2023/03/05 01:37:42;;;;;;;9.35;3.17;;;4.00;93.20;;;;;;5104630;28;20404;-65
2023/03/05 01:40:10;;;;;;;9.80;3.17;;;4.10;92.00;;;;;;5102091;28;20409;-64
2023/03/05 01:42:37;;;;;;;9.88;2.90;;;4.00;90.70;;;;;;5103966;28;20416;-65
2023/03/05 01:45:08;;;;;;;13.07;3.13;;;4.00;91.70;;;;;;5102540;28;20425;-65
2023/03/05 01:47:35;;;;;;;12.38;3.50;;;4.10;89.20;;;;;;5103483;28;20862;-65
2023/03/05 01:50:04;;;;;;;11.47;3.23;;;4.10;91.70;;;;;;5104589;28;20408;-65
2023/03/05 01:52:34;;;;;;;11.50;3.72;;;4.10;91.40;;;;;;5103151;28;20421;-65
2023/03/05 01:55:04;;;;;;;9.38;3.47;;;4.20;91.50;;;;;;5102163;28;20406;-65
2023/03/05 01:57:35;;;;;;;11.60;3.90;;;4.30;90.60;;;;;;5103556;28;20412;-65
2023/03/05 02:00:05;;;;;;;10.73;4.15;;;4.20;82.30;;;;;;5104402;28;21078;-65
2023/03/05 02:02:32;;;;;;;9.85;3.88;;;4.20;85.20;;;;;;5103380;28;20414;-65
2023/03/05 02:05:03;;;;;;;10.85;3.90;;;4.00;83.50;;;;;;5101760;28;20425;-65
2023/03/05 02:07:31;;;;;;;10.80;4.00;;;4.00;94.40;;;;;;5103695;28;20469;-65
2023/03/05 02:09:58;;;;;;;10.60;3.80;;;3.90;97.70;;;;;;5104512;28;20408;-65
2023/03/05 02:12:25;;;;;;;9.73;4.20;;;3.90;96.70;;;;;;5101523;28;20410;-65
2023/03/05 02:14:58;;;;;;;8.20;3.60;;;4.00;96.80;;;;;;5102307;28;20414;-64
2023/03/05 02:17:26;;;;;;;7.93;3.83;;;4.10;94.60;;;;;;5099307;28;20416;-65
2023/03/05 02:19:55;;;;;;;12.37;3.90;;;4.10;91.50;;;;;;5101899;28;20749;-65
2023/03/05 02:22:24;;;;;;;8.95;3.63;;;4.10;88.70;;;;;;5098844;28;20405;-65
2023/03/05 02:24:51;;;;;;;11.00;3.72;;;4.10;90.60;;;;;;5101858;28;20405;-65
2023/03/05 02:27:22;;;;;;;10.77;3.25;;;4.30;88.20;;;;;;5097957;28;21092;-65
2023/03/05 02:29:50;;;;;;;8.10;3.15;;;4.30;76.90;;;;;;5101844;28;20459;-65
2023/03/05 02:32:17;;;;;;;7.78;2.65;;;4.20;71.80;;;;;;5097597;28;20452;-65
2023/03/05 02:34:44;;;;;;;6.60;2.85;;;4.10;69.00;;;;;;5102403;28;20422;-66
2023/03/05 02:37:10;;;;;;;6.93;2.95;;;4.20;69.40;;;;;;5103836;28;20425;-64
2023/03/05 02:39:38;;;;;;;5.57;2.15;;;4.20;66.10;;;;;;5106436;28;20409;-64
2023/03/05 02:42:05;;;;;;;8.10;2.67;;;4.30;61.50;;;;;;5105664;28;20415;-64
2023/03/05 02:44:32;;;;;;;8.02;2.38;;;4.40;52.00;;;;;;5104088;28;20407;-65
2023/03/05 02:46:59;;;;;;;9.30;2.47;;;4.40;47.90;;;;;;5101236;28;20434;-65
2023/03/05 02:49:26;;;;;;;6.05;2.20;;;4.50;43.40;;;;;;5108114;28;20456;-65
2023/03/05 02:51:53;;;;;;;7.18;2.15;;;4.50;37.10;;;;;;5102106;28;20421;-65
2023/03/05 02:54:20;;;;;;;4.90;2.10;;;4.50;34.90;;;;;;5101224;28;20592;-65
2023/03/05 02:56:48;;;;;;;6.47;2.53;;;4.50;30.20;;;;;;5099444;28;20409;-65
2023/03/05 02:59:15;;;;;;;6.88;1.98;;;4.50;27.10;;;;;;5104501;27;20406;-65
2023/03/05 03:01:41;;;;;;;7.47;2.03;;;4.50;21.40;;;;;;5104576;28;20466;-65
2023/03/05 03:04:08;;;;;;;5.28;1.90;;;4.50;13.20;;;;;;5105619;28;20406;-64
2023/03/05 03:06:35;;;;;;;4.75;1.60;;;4.40;12.10;;;;;;5105736;28;20425;-65
2023/03/05 03:09:02;;;;;;;3.95;1.70;;;4.40;16.80;;;;;;5105950;28;20455;-65
2023/03/05 03:11:28;;;;;;;6.88;2.00;;;4.20;18.40;;;;;;5102433;28;20411;-64
2023/03/05 03:13:56;;;;;;;5.05;1.80;;;4.10;32.00;;;;;;5099695;28;20414;-65
2023/03/05 03:16:23;;;;;;;8.52;2.80;;;4.10;40.20;;;;;;5102373;28;20413;-65
2023/03/05 03:18:50;;;;;;;9.15;2.83;;;4.10;49.20;;;;;;5100928;28;20409;-65
2023/03/05 03:21:18;;;;;;;7.85;2.97;;;4.10;53.50;;;;;;5102535;28;20496;-65
2023/03/05 03:23:45;;;;;;;7.43;2.83;;;4.10;56.80;;;;;;5103538;28;20404;-65
2023/03/05 03:26:12;;;;;;;7.50;2.75;;;4.20;58.30;;;;;;5101630;28;20422;-65
2023/03/05 03:28:39;;;;;;;7.97;3.20;;;4.10;58.00;;;;;;5104332;28;20913;-65
2023/03/05 03:31:07;;;;;;;6.88;2.85;;;4.00;63.80;;;;;;5100644;28;20417;-65
2023/03/05 03:33:33;;;;;;;7.47;3.53;;;3.90;72.30;;;;;;5102042;28;20500;-65
2023/03/05 03:36:00;;;;;;;8.23;2.85;;;3.70;89.40;;;;;;5102632;28;20860;-65
2023/03/05 03:38:27;;;;;;;5.90;2.70;;;3.80;94.70;;;;;;5096708;28;20410;-65
2023/03/05 03:40:54;;;;;;;11.70;2.92;;;3.90;96.50;;;;;;5101094;28;20884;-64
2023/03/05 03:43:20;;;;;;;6.80;2.30;;;3.90;95.60;;;;;;5103410;28;20459;-64
2023/03/05 03:45:47;;;;;;;6.38;2.22;;;3.90;93.50;;;;;;5109321;28;20450;-65
2023/03/05 03:48:15;;;;;;;6.55;2.20;;;4.00;91.10;;;;;;5112304;28;20423;-64
2023/03/05 03:50:43;;;;;;;7.03;2.23;;;3.90;84.70;;;;;;5096837;28;20778;-65
2023/03/05 03:53:12;;;;;;;6.95;2.10;;;4.00;79.80;;;;;;5100722;28;20409;-65
2023/03/05 03:55:40;;;;;;;5.75;2.08;;;3.90;78.20;;;;;;5099914;28;20832;-65
2023/03/05 03:58:07;;;;;;;7.20;2.00;;;3.90;77.00;;;;;;5100793;28;20414;-65
2023/03/05 04:00:34;;;;;;;6.70;2.40;;;3.90;76.80;;;;;;5102178;28;20891;-65
2023/03/05 04:03:00;;;;;;;6.82;2.70;;;3.90;78.30;;;;;;5100674;28;20464;-65
2023/03/05 04:05:28;;;;;;;8.05;2.50;;;3.90;80.90;;;;;;5099840;28;20460;-65
2023/03/05 04:07:57;;;;;;;9.18;3.03;;;3.90;82.80;;;;;;5095882;28;20462;-65
2023/03/05 04:10:24;;;;;;;13.32;3.30;;;3.80;92.50;;;;;;5100451;28;20409;-65
2023/03/05 04:12:51;;;;;;;8.77;3.00;;;3.80;96.30;;;;;;5099755;28;20426;-64
2023/03/05 04:15:17;;;;;;;9.40;3.17;;;3.80;98.50;;;;;;5098176;28;20440;-65
2023/03/05 04:17:44;;;;;;;10.68;3.80;;;3.80;99.90;;;;;;5099522;28;20460;-65
2023/03/05 04:20:12;;;;;;;13.02;4.15;;;3.80;99.90;;;;;;5101571;28;20473;-65
2023/03/05 04:22:40;;;;;;;10.55;3.90;;;3.90;99.90;;;;;;5101539;28;20436;-65
2023/03/05 04:25:08;;;;;;;11.73;3.83;;;3.90;99.90;;;;;;5099566;28;20742;-65
2023/03/05 04:27:36;;;;;;;8.90;4.18;;;3.90;99.90;;;;;;5100204;28;20459;-65
2023/03/05 04:30:04;;;;;;;14.00;4.38;;;3.90;99.90;;;;;;5101702;28;20416;-65
2023/03/05 04:32:31;;;;;;;11.35;4.53;;;3.60;99.90;;;;;;5100715;28;20414;-65
2023/03/05 04:34:58;;;;;;;9.85;4.00;;;3.60;99.90;;;;;;5099309;28;20417;-63
2023/03/05 04:37:25;;;;;;;10.63;3.97;;;3.70;99.90;;;;;;5101451;28;20412;-64
2023/03/05 04:39:53;;;;;;;11.82;3.65;;;3.70;99.90;;;;;;5101511;28;20494;-64
2023/03/05 04:42:20;;;;;;;11.73;4.00;;;3.70;99.90;;;;;;5095360;28;20468;-64
2023/03/05 04:44:47;;;;;;;12.60;4.43;;;3.60;99.90;;;;;;5099788;28;20418;-64
2023/03/05 04:47:14;;;;;;;12.83;4.07;;;3.70;99.90;;;;;;5101438;28;20431;-65
2023/03/05 04:49:40;;;;;;;15.35;5.25;;;3.70;99.90;;;;;;5100098;28;20406;-64
2023/03/05 04:52:08;;;;;;;12.75;5.40;;;3.60;99.90;;;;;;5099864;28;20460;-65
2023/03/05 04:54:34;;;;;;;16.52;7.93;;;3.60;99.90;;;;;;5095693;28;20424;-64
2023/03/05 04:57:02;;;;;;;18.00;8.60;;;3.60;99.90;;;;;;5100135;28;20404;-64
2023/03/05 04:59:29;;;;;;;21.73;10.52;;;3.70;99.90;;;;;;5104104;28;20475;-64
2023/03/05 05:01:56;;;;;;;22.45;11.13;;;3.80;99.90;;;;;;5104449;28;20772;-64
2023/03/05 05:04:22;;;;;;;22.15;11.57;;;3.70;99.90;;;;;;5103083;28;20416;-65
2023/03/05 05:06:49;;;;;;;23.13;11.95;;;3.80;99.90;;;;;;5099775;28;20444;-64
2023/03/05 05:09:16;;;;;;;25.70;13.27;;;3.80;99.90;;;;;;5104019;28;20522;-64
2023/03/05 05:11:43;;;;;;;27.08;13.55;;;3.80;99.90;;;;;;5105635;28;20404;-64
2023/03/05 05:14:11;;;;;;;27.50;14.38;;;3.80;99.90;;;;;;5104351;28;20413;-64
2023/03/05 05:16:37;;;;;;;26.13;14.43;;;3.80;99.90;;;;;;5103111;28;20457;-64
2023/03/05 05:19:04;;;;;;;29.25;14.45;;;3.90;99.90;;;;;;5102948;28;20410;-64
2023/03/05 05:21:31;;;;;;;28.97;14.30;;;3.90;99.90;;;;;;5103545;28;20828;-64
2023/03/05 05:23:57;;;;;;;27.98;14.75;;;3.90;99.90;;;;;;5105193;28;20403;-65
2023/03/05 05:26:24;;;;;;;30.23;15.05;;;4.00;99.90;;;;;;5103849;28;20413;-65
2023/03/05 05:28:51;;;;;;;24.90;13.60;;;4.00;99.90;;;;;;5102833;28;20406;-65
2023/03/05 05:31:19;;;;;;;26.13;13.02;;;4.00;99.90;;;;;;5099378;28;20422;-65
2023/03/05 05:33:46;;;;;;;23.42;12.13;;;3.90;99.90;;;;;;5103514;28;20410;-64
2023/03/05 05:36:15;;;;;;;24.20;12.73;;;3.80;99.90;;;;;;5105283;28;20412;-64
2023/03/05 05:38:41;;;;;;;21.88;12.20;;;3.80;99.90;;;;;;5104113;28;20409;-65
2023/03/05 05:41:10;;;;;;;19.23;11.65;;;3.80;99.90;;;;;;5102521;28;20464;-65
2023/03/05 05:43:37;;;;;;;21.33;12.40;;;3.70;99.90;;;;;;5106107;28;20408;-64
2023/03/05 05:46:06;;;;;;;20.60;11.68;;;3.70;99.90;;;;;;5101236;28;21316;-64
2023/03/05 05:48:36;;;;;;;24.90;11.55;;;3.70;99.90;;;;;;5099467;28;20435;-65
2023/03/05 05:51:06;;;;;;;18.73;11.30;;;3.80;99.90;;;;;;5102751;28;20530;-65
2023/03/05 05:53:33;;;;;;;20.40;10.55;;;3.80;99.90;;;;;;5099712;28;20406;-64
2023/03/05 05:55:59;;;;;;;19.25;10.13;;;3.80;99.90;;;;;;5102782;28;20413;-64
2023/03/05 05:58:26;;;;;;;18.35;10.10;;;3.80;99.90;;;;;;5105529;28;20532;-64
2023/03/05 06:00:53;;;;;;;17.67;9.70;;;3.80;99.90;;;;;;5103344;28;20546;-64
2023/03/05 06:03:20;;;;;;;20.90;10.45;;;3.80;99.90;;;;;;5102254;28;20462;-64
2023/03/05 06:05:48;;;;;;;17.35;9.43;;;3.80;99.90;;;;;;5103755;28;20940;-64
2023/03/05 06:08:15;;;;;;;21.25;10.65;;;3.90;99.90;;;;;;5104215;28;20420;-64
2023/03/05 06:10:41;;;;;;;17.80;10.35;;;3.70;99.90;;;;;;5100675;28;20459;-64
2023/03/05 06:13:08;;;;;;;19.45;10.38;;;3.70;99.90;;;;;;5102933;28;20462;-64
2023/03/05 06:15:35;;;;;;;17.40;9.48;;;3.70;99.90;;;;;;5104483;28;20408;-64
2023/03/05 06:18:02;;;;;;;18.80;9.98;;;3.70;99.90;;;;;;5103320;28;20410;-65
2023/03/05 06:20:28;;;;;;;18.98;10.13;;;3.70;99.90;;;;;;5104294;28;20953;-64
2023/03/05 06:22:56;;;;;;;20.35;9.88;;;3.70;99.90;;;;;;5105338;28;20947;-65
2023/03/05 06:25:23;;;;;;;18.73;8.40;;;3.70;99.90;;;;;;5103834;28;20400;-64
2023/03/05 06:27:50;;;;;;;18.80;8.60;;;3.70;99.90;;;;;;5101905;28;20422;-64
2023/03/05 06:30:16;;;;;;;16.45;7.65;;;3.80;99.90;;;;;;5104509;28;20404;-64
2023/03/05 06:32:43;;;;;;;15.32;6.90;;;3.80;99.90;;;;;;5104073;28;20959;-64
2023/03/05 06:35:10;;;;;;;15.27;7.37;;;3.70;99.90;;;;;;5101869;28;20475;-64
2023/03/05 06:37:37;;;;;;;17.88;7.53;;;3.70;99.90;;;;;;5102516;28;20497;-64
2023/03/05 06:40:06;;;;;;;13.70;5.97;;;3.70;99.90;;;;;;5103448;28;20408;-65
2023/03/05 06:42:33;;;;;;;17.48;6.28;;;3.60;99.90;;;;;;5100688;28;20440;-65
2023/03/05 06:45:00;;;;;;;15.43;6.50;;;3.60;99.90;;;;;;5100973;28;20420;-65
2023/03/05 06:47:27;;;;;;;17.90;6.88;;;3.60;99.90;;;;;;5103516;28;20477;-64
2023/03/05 06:49:54;;;;;;;14.02;5.85;;;3.60;99.90;;;;;;5103585;28;20477;-65
2023/03/05 06:52:21;;;;;;;14.63;5.75;;;3.60;99.90;;;;;;5105275;28;20408;-64
2023/03/05 06:54:48;;;;;;;14.65;5.70;;;3.70;99.90;;;;;;5106551;28;20436;-65
2023/03/05 06:57:16;;;;;;;14.48;5.57;;;3.70;99.90;;;;;;5113170;28;20803;-64
2023/03/05 06:59:42;;;;;;;16.05;5.50;;;3.80;99.90;;;;;;5113231;28;20821;-63
2023/03/05 07:02:12;;;;;;;13.32;5.05;;;3.80;99.90;;;;;;5103075;28;20813;-64
2023/03/05 07:04:39;;;;;;;14.23;5.30;;;3.80;99.90;;;;;;5097346;28;20405;-64
2023/03/05 07:07:06;;;;;;;14.35;5.05;;;3.80;99.90;;;;;;5101165;28;20421;-64
2023/03/05 07:09:33;;;;;;;12.93;4.80;;;3.80;99.90;;;;;;5103389;28;20408;-64
2023/03/05 07:11:59;;;;;;;15.93;4.77;;;3.70;99.90;;;;;;5101637;28;20559;-64
2023/03/05 07:14:27;;;;;;;11.25;5.10;;;3.80;99.90;;;;;;5102664;28;20411;-64
2023/03/05 07:16:54;;;;;;;11.02;4.30;;;3.80;99.90;;;;;;5097433;28;20427;-64
2023/03/05 07:19:21;;;;;;;11.47;4.80;;;3.80;99.90;;;;;;5101096;28;20578;-64
2023/03/05 07:21:48;;;;;;;14.43;4.40;;;3.90;99.90;;;;;;5102711;28;20460;-65
2023/03/05 07:24:14;;;;;;;11.85;4.70;;;4.00;99.90;;;;;;5101365;28;20444;-64
2023/03/05 07:26:41;;;;;;;13.15;5.15;;;4.00;99.90;;;;;;5099854;28;20452;-64
2023/03/05 07:29:08;;;;;;;13.27;4.35;;;4.00;99.90;;;;;;5102503;28;20831;-64
2023/03/05 07:31:36;;;;;;;13.70;4.53;;;4.00;99.90;;;;;;5101865;28;20465;-65
2023/03/05 07:34:03;;;;;;;11.27;4.40;;;4.10;99.90;;;;;;5103200;28;20412;-64
2023/03/05 07:36:30;;;;;;;13.68;4.68;;;4.20;99.90;;;;;;5101092;28;20463;-64
2023/03/05 07:38:57;;;;;;;10.57;4.67;;;4.20;99.90;;;;;;5100222;28;20410;-64
2023/03/05 07:41:24;;;;;;;14.10;4.43;;;4.30;99.90;;;;;;5102315;28;20420;-63
2023/03/05 07:43:52;;;;;;;11.60;4.27;;;4.30;99.90;;;;;;5101383;28;20751;-64
2023/03/05 07:46:21;;;;;;;12.63;4.13;;;4.30;99.90;;;;;;5100392;28;20414;-64
2023/03/05 07:48:49;;;;;;;13.32;5.10;;;4.20;99.90;;;;;;5100408;28;20421;-64
2023/03/05 07:51:17;;;;;;;13.55;5.35;;;4.20;99.90;;;;;;5099779;28;20463;-64
2023/03/05 07:53:45;;;;;;;15.55;6.18;;;4.20;99.90;;;;;;5101329;28;20437;-64
2023/03/05 07:56:12;;;;;;;14.93;6.05;;;4.20;99.90;;;;;;5102359;28;20404;-65
2023/03/05 07:58:38;;;;;;;15.07;7.07;;;4.20;99.90;;;;;;5100289;28;20872;-64
2023/03/05 08:01:12;;;;;;;17.10;8.48;;;4.20;99.90;;;;;;5099880;28;20418;-64
2023/03/05 08:03:40;;;;;;;17.90;8.82;;;4.30;99.90;;;;;;5098195;28;20459;-64
2023/03/05 08:06:09;;;;;;;21.70;11.75;;;4.40;99.90;;;;;;5099555;28;20410;-64
2023/03/05 08:08:36;;;;;;;24.95;12.52;;;4.40;99.90;;;;;;5101307;28;20433;-64
2023/03/05 08:11:04;;;;;;;25.80;12.85;;;4.50;99.90;;;;;;5101862;28;20504;-64
2023/03/05 08:13:31;;;;;;;28.70;14.88;;;4.50;99.90;;;;;;5098073;28;20490;-65
2023/03/05 08:15:57;;;;;;;28.67;15.60;;;4.60;99.90;;;;;;5098656;28;20413;-65
2023/03/05 08:18:24;;;;;;;28.27;14.40;;;4.50;99.90;;;;;;5101656;28;20875;-65
2023/03/05 08:20:51;;;;;;;26.42;14.98;;;4.60;99.90;;;;;;5100430;28;20483;-65
2023/03/05 08:23:19;;;;;;;20.15;13.63;;;4.60;99.90;;;;;;5099814;28;20405;-65
2023/03/05 08:25:45;;;;;;;21.35;13.45;;;4.70;99.90;;;;;;5096011;28;20410;-65
2023/03/05 08:28:12;;;;;;;22.58;14.75;;;4.60;99.90;;;;;;5099981;28;20470;-65
2023/03/05 08:30:40;;;;;;;22.95;15.40;;;4.40;99.90;;;;;;5101829;28;20411;-64
2023/03/05 08:33:07;;;;;;;21.90;15.10;;;4.30;99.90;;;;;;5100054;28;20409;-65
2023/03/05 08:35:34;;;;;;;22.40;14.13;;;4.20;99.90;;;;;;5099454;28;20497;-65
2023/03/05 08:38:00;;;;;;;21.20;15.10;;;4.20;99.90;;;;;;5101658;28;20404;-65
2023/03/05 08:40:28;;;;;;;22.13;15.65;;;4.10;99.90;;;;;;5090469;28;20493;-64
2023/03/05 08:42:55;;;;;;;25.30;16.60;;;4.10;99.90;;;;;;5096334;28;20465;-64
2023/03/05 08:45:22;;;;;;;26.17;16.03;;;4.10;99.90;;;;;;5100266;28;20422;-64
2023/03/05 08:47:49;;;;;;;27.98;17.90;;;3.90;99.90;;;;;;5098486;28;20931;-64
2023/03/05 08:50:16;;;;;;;27.35;17.35;;;3.90;99.90;;;;;;5099343;28;20417;-64
2023/03/05 08:52:43;;;;;;;32.22;18.05;;;3.90;99.90;;;;;;5098998;28;21083;-64
2023/03/05 08:55:11;;;;;;;32.38;19.83;;;3.80;99.90;;;;;;5101537;28;20552;-64
2023/03/05 08:57:39;;;;;;;29.87;18.00;;;3.90;99.90;;;;;;5097359;28;20402;-66
2023/03/05 09:00:09;;;;;;;27.83;19.95;;;4.00;99.90;;;;;;5095762;28;20414;-62
2023/03/05 09:02:35;;;;;;;33.08;23.23;;;4.00;99.90;;;;;;5098510;28;20417;-58
2023/03/05 09:05:02;;;;;;;32.55;24.00;;;3.90;99.90;;;;;;5098591;28;20412;-64
2023/03/05 09:07:29;;;;;;;33.03;24.17;;;3.90;99.90;;;;;;5101818;28;20420;-63
2023/03/05 09:09:56;;;;;;;32.70;25.48;;;3.80;99.90;;;;;;5096711;28;20900;-62
2023/03/05 09:12:22;;;;;;;29.07;23.07;;;3.70;99.90;;;;;;5096806;28;20397;-64
2023/03/05 09:14:50;;;;;;;28.77;22.52;;;3.70;99.90;;;;;;5098153;28;20412;-65
2023/03/05 09:17:17;;;;;;;30.00;22.95;;;3.60;99.90;;;;;;5097928;28;20891;-65
2023/03/05 09:19:44;;;;;;;29.20;22.58;;;3.60;99.90;;;;;;5100056;28;21126;-62
2023/03/05 09:22:10;;;;;;;28.00;21.88;;;3.70;99.90;;;;;;5100696;28;20772;-65
2023/03/05 09:24:37;;;;;;;29.92;23.83;;;3.60;99.90;;;;;;5094943;28;20463;-65
2023/03/05 09:27:04;;;;;;;33.13;25.30;;;3.60;99.90;;;;;;5090624;28;20467;-64
2023/03/05 09:29:31;;;;;;;29.63;23.42;;;3.70;99.90;;;;;;5098618;28;20416;-65
2023/03/05 09:31:59;;;;;;;28.30;22.25;;;3.80;99.90;;;;;;5095986;28;20423;-65
2023/03/05 09:34:26;;;;;;;30.63;22.92;;;3.90;99.90;;;;;;5097553;28;20886;-64
2023/03/05 09:36:52;;;;;;;32.50;23.13;;;3.90;99.90;;;;;;5100821;28;20418;-67
2023/03/05 09:39:19;;;;;;;30.60;24.58;;;3.90;99.90;;;;;;5099840;28;20418;-63
2023/03/05 09:42:04;;;;;;;33.25;24.80;;;4.00;99.90;;;;;;5098144;28;20416;-64
2023/03/05 09:44:41;;;;;;;31.42;24.70;;;3.90;99.90;;;;;;5101514;28;20875;-65
2023/03/05 09:47:26;;;;;;;31.80;23.80;;;3.90;99.90;;;;;;5105651;28;20507;-62
2023/03/05 09:50:01;;;;;;;36.93;26.57;;;4.00;99.90;;;;;;5104173;28;20447;-62
2023/03/05 09:52:38;;;;;;;39.55;27.02;;;3.90;99.90;;;;;;5100660;28;20408;-64
2023/03/05 09:55:13;;;;;;;39.10;27.55;;;4.10;99.90;;;;;;5094703;28;20466;-63
2023/03/05 09:57:44;;;;;;;38.85;27.08;;;4.20;99.90;;;;;;5105312;28;20411;-62
2023/03/05 10:00:21;;;;;;;41.83;29.23;;;4.10;99.90;;;;;;5102475;28;20917;-61
2023/03/05 10:02:54;;;;;;;43.10;29.97;;;4.10;99.90;;;;;;5099019;28;20612;-62
2023/03/05 10:05:27;;;;;;;39.33;28.15;;;4.30;99.90;;;;;;5101866;28;20513;-63
2023/03/05 10:07:59;;;;;;;36.97;25.37;;;4.40;99.90;;;;;;5102928;28;20511;-62
2023/03/05 10:10:32;;;;;;;32.78;24.23;;;4.60;99.90;;;;;;5101940;28;20451;-64
2023/03/05 10:13:01;;;;;;;31.42;23.45;;;4.70;99.90;;;;;;5116644;28;20404;-64
2023/03/05 10:15:38;;;;;;;30.48;23.52;;;4.80;99.90;;;;;;5110423;28;20410;-65
2023/03/05 10:18:19;;;;;;;31.65;22.67;;;4.80;99.90;;;;;;5101313;28;20758;-63
2023/03/05 10:20:55;;;;;;;30.50;21.65;;;4.90;99.90;;;;;;5100580;28;20780;-64
2023/03/05 10:23:51;;;;;;;27.00;18.10;;;4.90;99.90;;;;;;5101726;28;20398;-64
2023/03/05 10:26:32;;;;;;;24.77;17.38;;;5.10;99.90;;;;;;5097598;28;20919;-64
2023/03/05 10:29:11;;;;;;;18.95;13.80;;;5.30;99.90;;;;;;5101456;28;20471;-64
2023/03/05 10:31:44;;;;;;;19.25;13.52;;;5.40;99.90;;;;;;5101026;28;20475;-64
2023/03/05 10:34:50;;;;;;;17.42;12.27;;;5.40;99.90;;;;;;5102285;28;20417;-64
2023/03/05 10:37:34;;;;;;;17.02;12.65;;;5.10;99.90;;;;;;5090237;28;20472;-63
2023/03/05 10:40:11;;;;;;;17.20;11.43;;;5.30;99.90;;;;;;5099596;28;20953;-64
2023/03/05 10:42:48;;;;;;;17.88;12.35;;;5.20;99.90;;;;;;5098114;28;20445;-64
2023/03/05 10:45:17;;;;;;;12.77;10.13;;;5.30;99.90;;;;;;5101481;28;20491;-63
2023/03/05 10:47:49;;;;;;;15.70;12.02;;;5.50;99.90;;;;;;5102117;28;20420;-64
2023/03/05 10:50:20;;;;;;;12.35;9.73;;;5.50;95.80;;;;;;5103458;28;20439;-62
2023/03/05 10:52:52;;;;;;;14.25;9.55;;;5.50;80.80;;;;;;5102756;28;20465;-63
2023/03/05 10:55:21;;;;;;;12.68;10.15;;;5.40;75.00;;;;;;5097492;28;20884;-64
2023/03/05 10:57:48;;;;;;;11.07;9.13;;;5.50;93.30;;;;;;5100604;28;20517;-63
2023/03/05 11:00:20;;;;;;;13.35;8.10;;;5.30;87.20;;;;;;5102920;28;20462;-64
2023/03/05 11:02:59;;;;;;;12.80;8.70;;;5.30;82.70;;;;;;5102710;28;20473;-63
2023/03/05 11:05:44;;;;;;;13.00;8.63;;;5.30;73.90;;;;;;5100313;28;20485;-61
2023/03/05 11:08:25;;;;;;;10.10;7.78;;;5.10;85.90;;;;;;5100182;28;20941;-62
2023/03/05 11:11:13;;;;;;;9.68;7.55;;;4.90;90.60;;;;;;5098913;28;22320;-63
2023/03/05 11:13:52;;;;;;;9.77;7.47;;;4.70;92.60;;;;;;5100570;28;20921;-62
2023/03/05 11:16:21;;;;;;;9.02;6.35;;;4.50;99.90;;;;;;5100598;28;20893;-60
2023/03/05 11:18:48;;;;;;;8.70;5.80;;;4.60;99.90;;;;;;5097436;28;20466;-59
2023/03/05 11:21:22;;;;;;;8.73;5.20;;;4.70;99.90;;;;;;5100865;28;20417;-62
2023/03/05 11:24:09;;;;;;;10.13;6.45;;;4.60;96.30;;;;;;5102591;28;20412;-64
2023/03/05 11:26:36;;;;;;;9.32;6.57;;;4.70;98.80;;;;;;5096953;28;20413;-64
2023/03/05 11:29:03;;;;;;;9.52;6.63;;;4.80;99.90;;;;;;5100261;28;20421;-60
2023/03/05 11:31:31;;;;;;;9.43;7.03;;;4.70;99.90;;;;;;5094650;28;20832;-62
2023/03/05 11:34:00;;;;;;;8.82;7.13;;;4.80;99.90;;;;;;5098185;28;20421;-58
2023/03/05 11:36:31;;;;;;;9.50;7.70;;;4.90;99.90;;;;;;5102304;28;20412;-60
2023/03/05 11:39:02;;;;;;;9.05;7.03;;;5.10;99.90;;;;;;5096759;28;20408;-61
2023/03/05 11:41:33;;;;;;;7.22;5.78;;;5.10;99.90;;;;;;5098137;28;20463;-60
2023/03/05 11:44:04;;;;;;;5.97;4.90;;;5.00;99.90;;;;;;5092628;28;20414;-62
2023/03/05 11:46:38;;;;;;;7.65;5.18;;;5.10;99.90;;;;;;5099565;28;20446;-61
2023/03/05 11:49:06;;;;;;;5.32;4.60;;;5.10;99.90;;;;;;5100058;28;20426;-62
2023/03/05 11:51:41;;;;;;;5.55;3.20;;;5.10;99.90;;;;;;5101652;28;20435;-62
2023/03/05 11:54:14;;;;;;;4.00;2.42;;;5.10;91.20;;;;;;5102249;28;20444;-62
2023/03/05 11:56:43;;;;;;;2.70;2.20;;;5.10;83.50;;;;;;5101072;28;20467;-62
2023/03/05 11:59:16;;;;;;;4.32;2.60;;;5.10;81.50;;;;;;5102156;28;20408;-63
2023/03/05 12:01:47;;;;;;;4.63;2.78;;;5.20;85.80;;;;;;5101804;28;20416;-65
2023/03/05 12:04:14;;;;;;;4.05;2.20;;;5.30;94.70;;;;;;5093901;28;20480;-69
2023/03/05 12:06:46;;;;;;;3.00;2.10;;;5.50;74.60;;;;;;5099821;28;20874;-67
2023/03/05 12:09:21;;;;;;;5.57;2.60;;;5.70;45.40;;;;;;5098775;28;20429;-68
2023/03/05 12:11:50;;;;;;;2.77;1.93;;;5.70;53.60;;;;;;5098643;28;20500;-65
2023/03/05 12:14:22;;;;;;;3.13;2.20;;;5.80;40.20;;;;;;5100748;28;20414;-65
2023/03/05 12:16:53;;;;;;;3.17;2.03;;;5.90;51.30;;;;;;5098593;28;20405;-66
2023/03/05 12:19:41;;;;;;;4.75;2.58;;;6.20;84.90;;;;;;5101966;28;20809;-68
2023/03/05 12:22:18;;;;;;;3.78;2.00;;;6.30;58.20;;;;;;5101259;28;20477;-65
2023/03/05 12:24:45;;;;;;;4.65;2.03;;;6.40;1.00;;;;;;5094890;28;20406;-64
2023/03/05 12:27:30;;;;;;;3.83;2.10;;;6.40;1.00;;;;;;5100213;28;20416;-65
2023/03/05 12:30:00;;;;;;;4.20;2.08;;;6.30;1.00;;;;;;5099532;28;20426;-64
2023/03/05 12:32:51;;;;;;;3.65;2.03;;;6.30;1.00;;;;;;5099970;28;20426;-64
2023/03/05 12:35:35;;;;;;;3.17;2.33;;;6.10;1.00;;;;;;5080659;28;20431;-67
2023/03/05 12:38:31;;;;;;;3.25;2.08;;;6.10;1.00;;;;;;5101969;28;20415;-66
2023/03/05 12:41:42;;;;;;;4.60;2.80;;;6.10;1.00;;;;;;5096695;28;20472;-67
2023/03/05 12:44:25;;;;;;;5.57;3.35;;;6.20;1.00;;;;;;5058884;28;20934;-64
2023/03/05 12:47:18;;;;;;;4.72;3.67;;;5.90;1.00;;;;;;5096614;28;20422;-65
2023/03/05 12:49:47;;;;;;;6.78;4.05;;;6.20;1.00;;;;;;5097777;28;20511;-61
2023/03/05 12:52:25;;;;;;;4.93;3.90;;;6.40;1.00;;;;;;5095937;28;20479;-59
2023/03/05 12:55:11;;;;;;;5.30;4.20;;;6.30;1.00;;;;;;5099153;28;20413;-63
2023/03/05 12:57:38;;;;;;;6.77;4.67;;;6.40;1.00;;;;;;5101630;28;20415;-64
2023/03/05 13:00:11;;;;;;;6.90;4.88;;;6.30;1.00;;;;;;5098812;28;20410;-65